createdAt,value
2023-04-05T00:00:21.885Z,92412.63
2023-04-05T00:01:53.823Z,92405.72
2023-04-05T00:03:26.003Z,92408.13
2023-04-05T00:04:58.578Z,92408.13
2023-04-05T00:06:30.274Z,92407.59
2023-04-05T00:08:02.329Z,92403.34
2023-04-05T00:09:33.806Z,92405.47
2023-04-05T00:11:06.221Z,92404.41
2023-04-05T00:12:37.792Z,92397.50
2023-04-05T00:14:09.268Z,92406.53
2023-04-05T00:15:41.261Z,92404.94
2023-04-05T00:17:13.526Z,92402.81
2023-04-05T00:18:54.155Z,92403.63
2023-04-05T00:20:26.087Z,92395.41
2023-04-05T00:21:57.619Z,92394.06
2023-04-05T00:23:29.575Z,92396.44
2023-04-05T00:25:01.125Z,92398.31
2023-04-05T00:26:32.687Z,92406.00
2023-04-05T00:28:04.290Z,92407.06
2023-04-05T00:29:36.104Z,92404.13
2023-04-05T00:31:07.815Z,92409.44
2023-04-05T00:32:39.328Z,92411.84
2023-04-05T00:34:12.691Z,92409.47
2023-04-05T00:35:44.258Z,92413.16
2023-04-05T00:37:15.945Z,92409.19
2023-04-05T00:38:47.866Z,92406.00
2023-04-05T00:40:19.398Z,92409.97
2023-04-05T00:41:50.962Z,92406.53
2023-04-05T00:43:22.492Z,92407.59
2023-04-05T00:44:54.068Z,92408.13
2023-04-05T00:46:25.930Z,92408.13
2023-04-05T00:47:57.513Z,92405.47
2023-04-05T00:49:29.558Z,92409.19
2023-04-05T00:51:01.138Z,92412.34
2023-04-05T00:52:32.994Z,92407.84
2023-04-05T00:54:04.871Z,92404.16
2023-04-05T00:55:36.426Z,92417.13
2023-04-05T00:57:08.250Z,92422.44
2023-04-05T00:58:42.529Z,92419.00
2023-04-05T01:00:15.298Z,92414.75
2023-04-05T01:01:55.363Z,92419.78
2023-04-05T01:03:27.730Z,92425.34
2023-04-05T01:05:19.548Z,92424.81
2023-04-05T01:07:08.380Z,92429.59
2023-04-05T01:08:40.129Z,92429.06
2023-04-05T01:10:12.139Z,92435.94
2023-04-05T01:11:43.914Z,92438.34
2023-04-05T01:13:18.755Z,92434.09
2023-04-05T01:14:51.976Z,92442.56
2023-04-05T01:16:23.567Z,92443.63
2023-04-05T01:17:57.701Z,92437.53
2023-04-05T01:19:31.809Z,92443.09
2023-04-05T01:21:10.746Z,92439.13
2023-04-05T01:22:42.336Z,92438.88
2023-04-05T01:24:16.732Z,92442.84
2023-04-05T01:26:00.126Z,92439.13
2023-04-05T01:27:37.414Z,92452.63
2023-04-05T01:29:25.856Z,92453.41
2023-04-05T01:31:17.655Z,92450.50
2023-04-05T01:33:07.910Z,92444.16
2023-04-05T01:34:57.145Z,92455.00
2023-04-05T01:36:37.836Z,92451.31
2023-04-05T01:38:10.565Z,92460.06
2023-04-05T01:39:42.086Z,92454.22
2023-04-05T01:41:13.879Z,92456.88
2023-04-05T01:42:46.781Z,92460.59
2023-04-05T01:44:18.416Z,92451.06
2023-04-05T01:45:50.011Z,92453.44
2023-04-05T01:47:22.223Z,92451.88
2023-04-05T01:48:53.745Z,92459.81
2023-04-05T01:50:25.429Z,92461.91
2023-04-05T01:51:56.987Z,92459.00
2023-04-05T01:53:28.551Z,92456.34
2023-04-05T01:55:00.167Z,92455.81
2023-04-05T01:56:31.729Z,92454.75
2023-04-05T01:58:03.239Z,92462.44
2023-04-05T01:59:34.864Z,92460.84
2023-04-05T02:01:06.509Z,92463.78
2023-04-05T02:02:38.239Z,92460.06
2023-04-05T02:04:09.740Z,92455.31
2023-04-05T02:05:42.298Z,92457.69
2023-04-05T02:07:13.783Z,92460.59
2023-04-05T02:08:45.235Z,92469.06
2023-04-05T02:10:17.877Z,92465.63
2023-04-05T02:11:49.452Z,92460.88
2023-04-05T02:13:24.116Z,92459.00
2023-04-05T02:17:05.802Z,92459.78
2023-04-05T02:18:58.366Z,92454.22
2023-04-05T02:20:35.148Z,92459.53
2023-04-05T02:38:04.922Z,92458.75
2023-04-05T02:39:36.535Z,92458.75
2023-04-05T02:41:08.744Z,92446.81
2023-04-05T02:42:40.754Z,92451.06
2023-04-05T02:44:12.874Z,92448.66
2023-04-05T02:45:46.344Z,92447.59
2023-04-05T02:47:21.805Z,92452.13
2023-04-05T02:48:53.489Z,92447.34
2023-04-05T02:50:25.210Z,92451.31
2023-04-05T02:51:57.061Z,92453.97
2023-04-05T02:53:28.686Z,92450.53
2023-04-05T02:55:00.353Z,92448.13
2023-04-05T02:56:32.654Z,92445.22
2023-04-05T02:58:04.376Z,92445.22
2023-04-05T02:59:36.829Z,92447.59
2023-04-05T03:01:08.984Z,92449.22
2023-04-05T03:02:40.659Z,92450.00
2023-04-05T03:04:17.492Z,92449.72
2023-04-05T03:05:49.550Z,92452.09
2023-04-05T03:07:22.092Z,92455.00
2023-04-05T03:08:53.988Z,92448.13
2023-04-05T03:10:29.260Z,92457.41
2023-04-05T03:12:04.104Z,92458.22
2023-04-05T03:13:36.378Z,92456.09
2023-04-05T03:15:08.752Z,92463.78
2023-04-05T03:16:40.747Z,92457.41
2023-04-05T03:18:12.413Z,92455.56
2023-04-05T03:19:45.721Z,92457.41
2023-04-05T03:21:18.625Z,92456.88
2023-04-05T03:22:50.625Z,92458.72
2023-04-05T03:24:22.382Z,92454.22
2023-04-05T03:26:03.469Z,92454.75
2023-04-05T03:27:35.356Z,92461.38
2023-04-05T03:29:07.587Z,92463.75
2023-04-05T03:30:39.184Z,92463.25
2023-04-05T03:32:12.090Z,92456.34
2023-04-05T03:33:43.727Z,92460.34
2023-04-05T03:35:17.121Z,92468.81
2023-04-05T03:36:49.791Z,92469.06
2023-04-05T03:38:21.597Z,92468.00
2023-04-05T03:39:53.593Z,92460.84
2023-04-05T03:41:26.314Z,92466.66
2023-04-05T03:42:57.945Z,92474.63
2023-04-05T03:44:30.586Z,92467.47
2023-04-05T03:46:02.133Z,92468.28
2023-04-05T03:47:33.851Z,92475.97
2023-04-05T03:49:06.455Z,92474.38
2023-04-05T03:50:37.947Z,92475.16
2023-04-05T03:52:09.977Z,92475.41
2023-04-05T03:53:41.980Z,92476.22
2023-04-05T03:55:17.010Z,92475.41
2023-04-05T03:56:48.573Z,92479.13
2023-04-05T03:58:20.106Z,92468.25
2023-04-05T03:59:52.289Z,92471.97
2023-04-05T04:01:23.875Z,92471.44
2023-04-05T04:02:55.552Z,92478.03
2023-04-05T04:04:28.185Z,92476.44
2023-04-05T04:05:59.844Z,92475.13
2023-04-05T04:07:31.697Z,92476.72
2023-04-05T04:09:05.784Z,92474.34
2023-04-05T04:10:37.703Z,92482.00
2023-04-05T04:12:09.359Z,92481.25
2023-04-05T04:13:41.245Z,92481.75
2023-04-05T04:15:12.974Z,92484.44
2023-04-05T04:16:44.635Z,92481.50
2023-04-05T04:18:16.234Z,92479.94
2023-04-05T04:19:47.713Z,92483.91
2023-04-05T04:21:19.404Z,92479.41
2023-04-05T04:22:53.970Z,92487.63
2023-04-05T04:24:27.247Z,92487.06
2023-04-05T04:25:59.246Z,92482.31
2023-04-05T04:27:31.060Z,92489.47
2023-04-05T04:29:06.379Z,92489.19
2023-04-05T04:30:38.372Z,92484.16
2023-04-05T04:32:10.999Z,92485.75
2023-04-05T04:33:43.789Z,92500.31
2023-04-05T04:35:18.628Z,92485.97
2023-04-05T04:37:01.214Z,92495.81
2023-04-05T04:38:35.091Z,92497.66
2023-04-05T04:40:08.993Z,92491.56
2023-04-05T04:41:47.228Z,92490.75
2023-04-05T04:43:19.129Z,92490.50
2023-04-05T04:44:50.670Z,92492.88
2023-04-05T04:46:30.814Z,92486.03
2023-04-05T04:48:05.134Z,92489.72
2023-04-05T04:49:37.490Z,92496.13
2023-04-05T04:51:09.228Z,92500.06
2023-04-05T04:52:41.096Z,92501.91
2023-04-05T04:54:13.327Z,92499.56
2023-04-05T04:55:45.173Z,92499.81
2023-04-05T04:57:16.642Z,92505.38
2023-04-05T04:58:48.268Z,92498.22
2023-04-05T05:00:20.748Z,92499.56
2023-04-05T05:01:52.409Z,92499.56
2023-04-05T05:03:24.019Z,92502.22
2023-04-05T05:04:55.568Z,92502.75
2023-04-05T05:16:15.533Z,92506.72
2023-04-05T05:17:55.512Z,92510.44
2023-04-05T05:19:27.147Z,92518.38
2023-04-05T05:20:58.788Z,92515.72
2023-04-05T05:22:30.557Z,92517.84
2023-04-05T05:24:02.262Z,92517.31
2023-04-05T05:25:34.198Z,92527.41
2023-04-05T05:27:06.067Z,92522.38
2023-04-05T05:28:38.889Z,92522.63
2023-04-05T05:30:11.331Z,92524.47
2023-04-05T05:31:42.931Z,92521.56
2023-04-05T05:33:15.183Z,92523.94
2023-04-05T05:34:48.943Z,92526.63
2023-04-05T05:36:20.620Z,92520.25
2023-04-05T05:37:53.116Z,92515.72
2023-04-05T05:39:25.312Z,92517.59
2023-04-05T05:41:00.837Z,92517.84
2023-04-05T05:42:32.932Z,92522.63
2023-04-05T05:44:04.657Z,92523.44
2023-04-05T05:45:36.554Z,92520.50
2023-04-05T05:47:08.248Z,92519.97
2023-04-05T05:48:41.465Z,92521.56
2023-04-05T05:50:17.570Z,92520.78
2023-04-05T05:51:49.695Z,92513.63
2023-04-05T05:53:24.581Z,92516.25
2023-04-05T05:54:56.748Z,92519.19
2023-04-05T05:56:28.936Z,92513.84
2023-04-05T05:58:02.555Z,92523.69
2023-04-05T05:59:34.161Z,92530.56
2023-04-05T06:01:09.040Z,92527.09
2023-04-05T06:02:41.474Z,92520.72
2023-04-05T06:04:14.377Z,92522.00
2023-04-05T06:05:56.055Z,92522.28
2023-04-05T06:07:28.035Z,92522.25
2023-04-05T06:08:59.825Z,92523.31
2023-04-05T06:10:31.606Z,92521.44
2023-04-05T06:12:03.656Z,92521.44
2023-04-05T06:13:36.784Z,92521.19
2023-04-05T06:15:08.847Z,92516.66
2023-04-05T06:22:46.047Z,92530.44
2023-04-05T06:24:32.242Z,92535.22
2023-04-05T06:26:03.871Z,92530.44
2023-04-05T06:27:35.601Z,92530.94
2023-04-05T06:29:07.207Z,92538.38
2023-04-05T06:31:02.938Z,92533.59
2023-04-05T06:40:23.318Z,92546.63
2023-04-05T06:41:54.921Z,92543.22
2023-04-05T06:43:27.040Z,92544.81
2023-04-05T06:44:58.791Z,92540.78
2023-04-05T06:46:30.743Z,92551.94
2023-04-05T06:48:02.913Z,92550.09
2023-04-05T06:49:34.908Z,92553.53
2023-04-05T06:51:07.086Z,92554.06
2023-04-05T06:52:39.506Z,92560.97
2023-04-05T06:54:12.512Z,92566.03
2023-04-05T06:55:49.487Z,92563.09
2023-04-05T06:57:21.271Z,92560.72
2023-04-05T06:58:53.390Z,92567.06
2023-04-05T07:00:25.225Z,92564.13
2023-04-05T07:01:57.322Z,92575.00
2023-04-05T07:03:29.036Z,92563.88
2023-04-05T07:05:05.116Z,92566.53
2023-04-05T07:06:39.448Z,92570.50
2023-04-05T07:08:11.236Z,92563.88
2023-04-05T07:09:42.812Z,92577.44
2023-04-05T07:11:15.391Z,92574.00
2023-04-05T07:12:49.873Z,92572.94
2023-04-05T07:14:21.395Z,92588.31
2023-04-05T07:15:53.189Z,92572.38
2023-04-05T07:17:25.090Z,92577.41
2023-04-05T07:18:57.270Z,92580.88
2023-04-05T07:20:29.158Z,92584.84
2023-04-05T07:22:01.289Z,92584.28
2023-04-05T07:23:33.055Z,92590.13
2023-04-05T07:25:05.706Z,92587.47
2023-04-05T07:26:37.677Z,92588.25
2023-04-05T07:28:09.304Z,92589.81
2023-04-05T07:29:44.520Z,92595.16
2023-04-05T07:31:17.314Z,92595.44
2023-04-05T07:32:49.289Z,92594.91
2023-04-05T07:34:20.963Z,92596.25
2023-04-05T07:35:55.878Z,92596.78
2023-04-05T07:37:27.786Z,92602.09
2023-04-05T07:38:59.710Z,92601.28
2023-04-05T07:40:31.478Z,92608.47
2023-04-05T07:42:03.157Z,92605.28
2023-04-05T07:43:34.788Z,92610.06
2023-04-05T07:45:09.035Z,92606.06
2023-04-05T07:46:47.619Z,92609.53
2023-04-05T07:48:21.589Z,92616.41
2023-04-05T07:49:53.219Z,92609.53
2023-04-05T07:51:25.177Z,92614.84
2023-04-05T07:52:56.794Z,92614.53
2023-04-05T07:54:28.573Z,92615.88
2023-04-05T07:56:03.983Z,92613.75
2023-04-05T07:57:35.853Z,92610.56
2023-04-05T07:59:07.954Z,92616.34
2023-04-05T08:00:40.008Z,92615.00
2023-04-05T08:02:14.535Z,92621.09
2023-04-05T08:03:46.803Z,92622.69
2023-04-05T08:05:18.609Z,92629.88
2023-04-05T08:06:50.349Z,92621.09
2023-04-05T08:08:22.238Z,92628.53
2023-04-05T08:09:57.650Z,92627.47
2023-04-05T08:11:29.212Z,92628.53
2023-04-05T08:13:00.845Z,92631.69
2023-04-05T08:14:32.476Z,92629.34
2023-04-05T08:16:04.194Z,92627.47
2023-04-05T08:17:35.978Z,92632.00
2023-04-05T08:19:07.589Z,92630.66
2023-04-05T08:20:40.844Z,92633.59
2023-04-05T08:22:13.008Z,92630.94
2023-04-05T08:23:44.656Z,92634.34
2023-04-05T08:25:16.382Z,92633.56
2023-04-05T08:26:48.802Z,92629.28
2023-04-05T08:28:20.675Z,92627.38
2023-04-05T08:29:52.276Z,92627.91
2023-04-05T08:31:24.104Z,92627.31
2023-04-05T08:32:55.735Z,92620.63
2023-04-05T08:34:27.389Z,92621.34
2023-04-05T08:36:03.594Z,92625.03
2023-04-05T08:37:35.833Z,92630.25
2023-04-05T08:39:07.476Z,92629.91
2023-04-05T08:40:43.464Z,92630.63
2023-04-05T08:42:27.137Z,92635.53
2023-04-05T08:44:05.845Z,92635.16
2023-04-05T08:45:38.855Z,92625.81
2023-04-05T08:47:15.157Z,92630.84
2023-04-05T08:48:46.902Z,92636.97
2023-04-05T08:50:18.509Z,92633.81
2023-04-05T08:51:50.285Z,92633.41
2023-04-05T08:53:22.740Z,92639.13
2023-04-05T08:54:55.477Z,92634.38
2023-04-05T08:56:28.366Z,92640.28
2023-04-05T08:58:00.634Z,92639.03
2023-04-05T08:59:35.521Z,92637.75
2023-04-05T09:01:07.374Z,92640.75
2023-04-05T09:02:39.210Z,92638.78
2023-04-05T09:04:15.099Z,92637.91
2023-04-05T09:05:47.187Z,92637.63
2023-04-05T09:07:18.835Z,92641.91
2023-04-05T09:08:50.503Z,92638.09
2023-04-05T09:10:22.414Z,92640.50
2023-04-05T09:11:53.944Z,92641.44
2023-04-05T09:13:25.715Z,92635.88
2023-04-05T09:14:57.318Z,92627.88
2023-04-05T09:16:29.317Z,92635.47
2023-04-05T09:18:01.791Z,92635.66
2023-04-05T09:19:34.391Z,92638.38
2023-04-05T09:21:06.664Z,92646.09
2023-04-05T09:22:45.751Z,92638.88
2023-04-05T09:24:25.389Z,92634.50
2023-04-05T09:25:57.648Z,92635.16
2023-04-05T09:27:29.231Z,92632.78
2023-04-05T09:29:01.286Z,92637.03
2023-04-05T09:30:33.636Z,92639.72
2023-04-05T09:32:06.174Z,92639.19
2023-04-05T09:33:38.050Z,92643.09
2023-04-05T09:35:09.784Z,92637.63
2023-04-05T09:36:44.563Z,92633.91
2023-04-05T09:38:16.465Z,92642.50
2023-04-05T09:39:49.910Z,92638.38
2023-04-05T09:41:21.802Z,92635.44
2023-04-05T09:42:54.199Z,92639.13
2023-04-05T09:44:25.955Z,92630.53
2023-04-05T09:45:58.243Z,92633.91
2023-04-05T09:47:35.189Z,92630.47
2023-04-05T09:49:09.570Z,92627.28
2023-04-05T09:50:41.580Z,92629.16
2023-04-05T09:52:22.536Z,92636.31
2023-04-05T09:53:58.930Z,92631.47
2023-04-05T09:55:31.026Z,92636.09
2023-04-05T09:57:04.563Z,92633.34
2023-04-05T09:58:36.217Z,92638.28
2023-04-05T10:00:17.916Z,92634.28
2023-04-05T10:01:51.765Z,92628.16
2023-04-05T10:03:25.464Z,92633.63
2023-04-05T10:04:57.123Z,92633.34
2023-04-05T10:06:38.755Z,92628.72
2023-04-05T10:08:10.456Z,92634.28
2023-04-05T10:09:42.411Z,92630.81
2023-04-05T10:11:13.986Z,92637.09
2023-04-05T10:12:46.938Z,92631.81
2023-04-05T10:14:18.551Z,92633.69
2023-04-05T10:15:50.680Z,92630.25
2023-04-05T10:17:38.033Z,92624.69
2023-04-05T10:19:12.936Z,92620.72
2023-04-05T10:20:45.290Z,92629.56
2023-04-05T10:22:18.226Z,92627.50
2023-04-05T10:23:54.128Z,92628.63
2023-04-05T10:25:40.251Z,92627.19
2023-04-05T10:27:18.084Z,92626.66
2023-04-05T10:28:51.917Z,92623.50
2023-04-05T10:30:24.430Z,92625.94
2023-04-05T10:31:59.519Z,92622.25
2023-04-05T10:33:42.605Z,92635.25
2023-04-05T10:35:17.555Z,92632.22
2023-04-05T10:36:50.092Z,92632.50
2023-04-05T10:38:30.459Z,92631.19
2023-04-05T10:40:03.329Z,92633.38
2023-04-05T10:41:36.139Z,92635.53
2023-04-05T10:43:08.710Z,92635.25
2023-04-05T10:44:40.514Z,92629.91
2023-04-05T10:46:12.320Z,92631.19
2023-04-05T10:48:07.700Z,92633.09
2023-04-05T10:49:49.666Z,92630.19
2023-04-05T10:51:24.059Z,92626.22
2023-04-05T10:52:55.720Z,92631.03
2023-04-05T10:54:27.169Z,92638.25
2023-04-05T10:55:58.731Z,92633.03
2023-04-05T10:57:30.419Z,92630.59
2023-04-05T10:59:02.172Z,92632.19
2023-04-05T11:00:33.820Z,92635.38
2023-04-05T11:02:05.936Z,92645.47
2023-04-05T11:03:49.911Z,92643.06
2023-04-05T11:05:32.422Z,92636.75
2023-04-05T11:07:17.067Z,92640.03
2023-04-05T11:08:49.219Z,92642.25
2023-04-05T11:10:20.876Z,92648.31
2023-04-05T11:11:52.802Z,92646.22
2023-04-05T11:13:31.423Z,92647.28
2023-04-05T11:15:22.385Z,92639.53
2023-04-05T11:16:57.134Z,92637.03
2023-04-05T11:18:28.933Z,92639.66
2023-04-05T11:20:04.115Z,92647.53
2023-04-05T11:21:36.072Z,92642.34
2023-04-05T11:23:07.903Z,92642.25
2023-04-05T11:24:56.854Z,92638.50
2023-04-05T11:26:31.941Z,92646.47
2023-04-05T11:28:05.410Z,92643.44
2023-04-05T11:29:47.602Z,92636.44
2023-04-05T11:31:20.482Z,92640.25
2023-04-05T11:32:52.597Z,92638.19
2023-04-05T11:34:25.404Z,92645.25
2023-04-05T11:36:04.077Z,92634.91
2023-04-05T11:37:54.630Z,92645.06
2023-04-05T11:39:26.322Z,92644.78
2023-04-05T11:41:17.649Z,92647.16
2023-04-05T11:42:49.356Z,92641.47
2023-04-05T11:44:21.274Z,92643.72
2023-04-05T11:45:52.853Z,92642.34
2023-04-05T11:47:24.601Z,92644.19
2023-04-05T11:48:56.542Z,92639.03
2023-04-05T11:50:28.473Z,92640.00
2023-04-05T11:52:01.575Z,92634.66
2023-04-05T11:53:33.263Z,92636.72
2023-04-05T11:55:06.367Z,92637.75
2023-04-05T11:56:38.069Z,92641.94
2023-04-05T11:58:13.732Z,92637.03
2023-04-05T11:59:46.003Z,92628.75
2023-04-05T12:01:18.885Z,92638.06
2023-04-05T12:02:56.091Z,92628.88
2023-04-05T12:04:28.104Z,92634.63
2023-04-05T12:06:00.770Z,92631.38
2023-04-05T12:07:37.356Z,92636.66
2023-04-05T12:09:08.980Z,92638.94
2023-04-05T12:10:40.717Z,92643.44
2023-04-05T12:12:18.781Z,92638.56
2023-04-05T12:13:51.583Z,92643.56
2023-04-05T12:15:30.839Z,92642.09
2023-04-05T12:17:02.887Z,92643.13
2023-04-05T12:18:34.910Z,92630.25
2023-04-05T12:20:06.860Z,92633.13
2023-04-05T12:21:38.378Z,92632.31
2023-04-05T12:23:10.492Z,92634.28
2023-04-05T12:24:42.158Z,92629.47
2023-04-05T12:26:14.201Z,92626.03
2023-04-05T12:27:47.002Z,92635.44
2023-04-05T12:29:18.538Z,92632.06
2023-04-05T12:30:50.898Z,92629.97
2023-04-05T12:32:22.822Z,92626.88
2023-04-05T12:33:54.947Z,92628.47
2023-04-05T12:35:33.129Z,92632.53
2023-04-05T12:37:04.879Z,92633.81
2023-04-05T12:38:40.742Z,92639.25
2023-04-05T12:40:13.188Z,92633.88
2023-04-05T12:41:45.313Z,92634.97
2023-04-05T12:43:20.597Z,92631.78
2023-04-05T12:45:02.379Z,92626.25
2023-04-05T12:46:43.677Z,92640.91
2023-04-05T12:48:16.087Z,92640.25
2023-04-05T12:49:47.700Z,92640.25
2023-04-05T12:51:19.195Z,92643.22
2023-04-05T12:52:54.226Z,92637.06
2023-04-05T12:54:25.776Z,92635.47
2023-04-05T12:55:58.845Z,92638.66
2023-04-05T12:57:31.606Z,92638.09
2023-04-05T12:59:04.225Z,92644.13
2023-04-05T13:00:35.809Z,92642.75
2023-04-05T13:02:07.569Z,92639.34
2023-04-05T13:03:41.908Z,92646.69
2023-04-05T13:05:13.662Z,92639.75
2023-04-05T13:06:47.828Z,92639.25
2023-04-05T13:08:19.702Z,92638.16
2023-04-05T13:09:51.773Z,92630.00
2023-04-05T13:11:23.572Z,92631.31
2023-04-05T13:12:55.290Z,92635.56
2023-04-05T13:14:26.859Z,92636.16
2023-04-05T13:15:58.641Z,92638.25
2023-04-05T13:17:30.305Z,92628.63
2023-04-05T13:19:02.141Z,92629.44
2023-04-05T13:20:33.761Z,92641.50
2023-04-05T13:22:05.492Z,92637.22
2023-04-05T13:23:40.615Z,92639.91
2023-04-05T13:25:12.223Z,92635.81
2023-04-05T13:26:43.851Z,92632.72
2023-04-05T13:28:15.856Z,92637.03
2023-04-05T13:29:47.841Z,92632.72
2023-04-05T13:31:19.876Z,92635.06
2023-04-05T13:32:51.723Z,92634.78
2023-04-05T13:34:23.577Z,92634.09
2023-04-05T13:35:55.747Z,92637.59
2023-04-05T13:37:27.421Z,92639.78
2023-04-05T13:38:59.290Z,92640.06
2023-04-05T13:40:32.118Z,92640.38
2023-04-05T13:42:04.055Z,92644.69
2023-04-05T13:43:35.790Z,92650.03
2023-04-05T13:45:08.094Z,92642.44
2023-04-05T13:46:40.120Z,92636.81
2023-04-05T13:48:11.861Z,92637.09
2023-04-05T13:49:43.721Z,92636.53
2023-04-05T13:51:15.792Z,92643.75
2023-04-05T13:52:47.614Z,92645.91
2023-04-05T13:54:21.819Z,92647.66
2023-04-05T13:55:53.678Z,92646.63
2023-04-05T13:57:25.452Z,92655.50
2023-04-05T13:58:57.208Z,92652.09
2023-04-05T14:00:28.982Z,92648.72
2023-04-05T14:02:00.773Z,92657.25
2023-04-05T14:03:32.736Z,92656.44
2023-04-05T14:05:05.170Z,92651.31
2023-04-05T14:06:37.141Z,92652.31
2023-04-05T14:08:10.094Z,92651.31
2023-04-05T14:09:42.319Z,92652.47
2023-04-05T14:11:14.090Z,92649.38
2023-04-05T14:12:46.009Z,92655.28
2023-04-05T14:14:18.215Z,92655.28
2023-04-05T14:15:50.810Z,92651.25
2023-04-05T14:17:22.426Z,92647.41
2023-04-05T14:18:54.258Z,92651.66
2023-04-05T14:20:25.994Z,92652.38
2023-04-05T14:21:58.209Z,92653.91
2023-04-05T14:23:30.107Z,92644.88
2023-04-05T14:25:01.714Z,92653.50
2023-04-05T14:26:33.336Z,92651.38
2023-04-05T14:28:05.062Z,92652.69
2023-04-05T14:29:36.651Z,92654.56
2023-04-05T14:31:09.452Z,92664.66
2023-04-05T14:32:41.306Z,92655.94
2023-04-05T14:34:12.853Z,92659.53
2023-04-05T14:35:44.507Z,92664.06
2023-04-05T14:37:18.216Z,92663.28
2023-04-05T14:38:49.965Z,92664.63
2023-04-05T14:40:21.617Z,92661.25
2023-04-05T14:41:54.298Z,92666.13
2023-04-05T14:43:26.761Z,92667.19
2023-04-05T14:44:58.550Z,92673.69
2023-04-05T14:46:30.921Z,92671.06
2023-04-05T14:48:02.578Z,92665.84
2023-04-05T14:49:34.394Z,92666.47
2023-04-05T14:51:06.279Z,92669.06
2023-04-05T14:52:40.016Z,92665.34
2023-04-05T14:54:11.750Z,92666.47
2023-04-05T14:55:45.466Z,92674.75
2023-04-05T14:57:17.327Z,92678.75
2023-04-05T14:58:49.175Z,92680.91
2023-04-05T15:00:21.222Z,92672.34
2023-04-05T15:01:52.950Z,92681.94
2023-04-05T15:03:25.158Z,92681.84
2023-04-05T15:05:00.489Z,92675.97
2023-04-05T15:06:32.510Z,92674.09
2023-04-05T15:08:04.481Z,92680.00
2023-04-05T15:09:36.195Z,92684.53
2023-04-05T15:11:07.799Z,92679.53
2023-04-05T15:12:39.480Z,92675.56
2023-04-05T15:14:21.040Z,92676.91
2023-04-05T15:16:00.744Z,92672.94
2023-04-05T15:17:32.633Z,92682.13
2023-04-05T15:19:04.639Z,92674.69
2023-04-05T15:20:36.417Z,92684.84
2023-04-05T15:22:08.248Z,92679.56
2023-04-05T15:23:39.777Z,92687.88
2023-04-05T15:25:11.496Z,92684.94
2023-04-05T15:26:43.466Z,92687.41
2023-04-05T15:28:15.183Z,92693.31
2023-04-05T15:29:46.866Z,92691.22
2023-04-05T15:31:18.526Z,92697.97
2023-04-05T15:32:51.310Z,92693.97
2023-04-05T15:34:23.059Z,92691.38
2023-04-05T15:35:54.723Z,92692.19
2023-04-05T15:37:26.953Z,92693.28
2023-04-05T15:38:58.525Z,92700.72
2023-04-05T15:40:30.261Z,92699.13
2023-04-05T15:42:03.071Z,92700.25
2023-04-05T15:43:34.725Z,92697.59
2023-04-05T15:45:07.287Z,92698.94
2023-04-05T15:46:39.736Z,92707.19
2023-04-05T15:48:14.039Z,92703.00
2023-04-05T15:49:46.077Z,92708.31
2023-04-05T15:51:17.705Z,92697.72
2023-04-05T15:52:50.529Z,92696.41
2023-04-05T15:54:22.546Z,92701.44
2023-04-05T15:55:54.594Z,92703.06
2023-04-05T15:57:28.818Z,92709.72
2023-04-05T15:59:00.740Z,92701.44
2023-04-05T16:00:33.693Z,92700.41
2023-04-05T16:02:05.804Z,92704.72
2023-04-05T16:03:37.576Z,92702.84
2023-04-05T16:05:09.404Z,92700.78
2023-04-05T16:06:41.025Z,92704.78
2023-04-05T16:08:12.931Z,92697.06
2023-04-05T16:09:44.683Z,92700.53
2023-04-05T16:11:16.406Z,92698.94
2023-04-05T16:12:48.080Z,92706.09
2023-04-05T16:14:19.701Z,92699.44
2023-04-05T16:15:51.658Z,92696.53
2023-04-05T16:17:23.519Z,92701.59
2023-04-05T16:18:55.656Z,92693.59
2023-04-05T16:20:27.890Z,92696.81
2023-04-05T16:22:00.380Z,92701.13
2023-04-05T16:23:32.422Z,92697.41
2023-04-05T16:25:04.676Z,92695.81
2023-04-05T16:26:36.368Z,92688.88
2023-04-05T16:28:08.102Z,92689.69
2023-04-05T16:29:39.769Z,92691.06
2023-04-05T16:31:11.284Z,92685.44
2023-04-05T16:32:43.141Z,92689.47
2023-04-05T16:34:15.199Z,92690.00
2023-04-05T16:35:46.843Z,92688.94
2023-04-05T16:37:19.187Z,92697.97
2023-04-05T16:38:50.784Z,92690.78
2023-04-05T16:40:23.411Z,92691.88
2023-04-05T16:41:55.265Z,92690.28
2023-04-05T16:43:26.924Z,92691.06
2023-04-05T16:44:58.645Z,92684.69
2023-04-05T16:46:33.102Z,92686.06
2023-04-05T16:48:04.993Z,92685.78
2023-04-05T16:49:37.241Z,92688.94
2023-04-05T16:51:08.955Z,92687.91
2023-04-05T16:52:40.668Z,92695.91
2023-04-05T16:54:12.548Z,92692.97
2023-04-05T16:55:44.499Z,92699.09
2023-04-05T16:57:16.921Z,92695.94
2023-04-05T16:58:48.679Z,92696.75
2023-04-05T17:00:20.829Z,92699.16
2023-04-05T17:01:53.075Z,92700.75
2023-04-05T17:03:25.479Z,92705.22
2023-04-05T17:04:57.927Z,92704.44
2023-04-05T17:06:29.911Z,92702.34
2023-04-05T17:08:01.465Z,92696.75
2023-04-05T17:09:33.510Z,92699.16
2023-04-05T17:11:05.718Z,92705.25
2023-04-05T17:12:40.781Z,92709.81
2023-04-05T17:14:12.655Z,92708.50
2023-04-05T17:15:44.715Z,92710.34
2023-04-05T17:17:16.437Z,92714.34
2023-04-05T17:18:49.517Z,92712.75
2023-04-05T17:20:21.104Z,92714.66
2023-04-05T17:21:53.294Z,92719.97
2023-04-05T17:23:26.023Z,92714.69
2023-04-05T17:24:57.777Z,92710.19
2023-04-05T17:26:29.872Z,92713.38
2023-04-05T17:28:01.758Z,92711.00
2023-04-05T17:29:33.572Z,92708.59
2023-04-05T17:31:05.332Z,92711.50
2023-04-05T17:32:37.481Z,92711.50
2023-04-05T17:34:13.295Z,92709.66
2023-04-05T17:35:45.010Z,92718.97
2023-04-05T17:37:16.858Z,92715.78
2023-04-05T17:38:48.814Z,92715.75
2023-04-05T17:40:20.474Z,92715.00
2023-04-05T17:41:54.758Z,92716.28
2023-04-05T17:43:26.884Z,92713.13
2023-04-05T17:44:58.383Z,92719.78
2023-04-05T17:46:40.192Z,92718.97
2023-04-05T17:48:13.554Z,92719.53
2023-04-05T17:49:45.633Z,92721.13
2023-04-05T17:51:17.424Z,92718.47
2023-04-05T17:52:49.122Z,92719.53
2023-04-05T17:54:21.031Z,92719.25
2023-04-05T17:55:55.375Z,92722.72
2023-04-05T17:57:27.090Z,92719.81
2023-04-05T17:58:58.770Z,92728.81
2023-04-05T18:00:30.513Z,92726.16
2023-04-05T18:02:02.073Z,92732.28
2023-04-05T18:03:33.824Z,92725.91
2023-04-05T18:05:05.632Z,92729.63
2023-04-05T18:06:37.600Z,92731.22
2023-04-05T18:08:09.352Z,92734.94
2023-04-05T18:09:42.605Z,92731.75
2023-04-05T18:11:14.323Z,92734.94
2023-04-05T18:12:45.953Z,92730.44
2023-04-05T18:14:17.482Z,92737.59
2023-04-05T18:15:52.578Z,92732.31
2023-04-05T18:17:24.411Z,92737.59
2023-04-05T18:18:56.435Z,92731.78
2023-04-05T18:20:27.935Z,92741.84
2023-04-05T18:21:59.514Z,92747.41
2023-04-05T18:23:31.090Z,92740.00
2023-04-05T18:25:03.245Z,92748.22
2023-04-05T18:26:35.347Z,92751.66
2023-04-05T18:28:21.313Z,92756.72
2023-04-05T18:29:53.746Z,92759.38
2023-04-05T18:31:26.212Z,92766.00
2023-04-05T18:32:57.952Z,92765.72
2023-04-05T18:34:29.597Z,92763.88
2023-04-05T18:36:02.229Z,92767.84
2023-04-05T18:37:34.488Z,92762.53
2023-04-05T18:39:06.350Z,92761.72
2023-04-05T18:40:38.166Z,92768.09
2023-04-05T18:42:09.818Z,92768.91
2023-04-05T18:43:41.430Z,92767.00
2023-04-05T18:45:13.567Z,92761.16
2023-04-05T18:46:45.412Z,92768.34
2023-04-05T18:48:17.362Z,92763.03
2023-04-05T18:49:48.994Z,92763.56
2023-04-05T18:51:21.914Z,92764.88
2023-04-05T18:52:53.448Z,92769.66
2023-04-05T18:54:25.592Z,92775.25
2023-04-05T18:55:57.085Z,92769.38